sensor_id;sensor_type;location;lat;lon;timestamp;P1;durP1;ratioP1;P2;durP2;ratioP2
42192;SDS011;52467;40.114;18.306;2022-07-22T00:01:17;4.65;;;3.45;;
42192;SDS011;52467;40.114;18.306;2022-07-22T00:03:46;4.40;;;3.28;;
42192;SDS011;52467;40.114;18.306;2022-07-22T00:06:13;5.07;;;3.70;;
42192;SDS011;52467;40.114;18.306;2022-07-22T00:08:41;4.25;;;3.10;;
42192;SDS011;52467;40.114;18.306;2022-07-22T00:11:08;4.80;;;3.00;;
42192;SDS011;52467;40.114;18.306;2022-07-22T00:13:35;4.32;;;2.88;;
42192;SDS011;52467;40.114;18.306;2022-07-22T00:16:03;3.60;;;3.10;;
42192;SDS011;52467;40.114;18.306;2022-07-22T00:18:31;5.57;;;3.22;;
42192;SDS011;52467;40.114;18.306;2022-07-22T00:20:58;4.53;;;3.20;;
42192;SDS011;52467;40.114;18.306;2022-07-22T00:23:25;6.20;;;3.47;;
42192;SDS011;52467;40.114;18.306;2022-07-22T00:25:54;4.93;;;3.17;;
42192;SDS011;52467;40.114;18.306;2022-07-22T00:28:21;4.93;;;2.85;;
42192;SDS011;52467;40.114;18.306;2022-07-22T00:30:48;5.70;;;3.30;;
42192;SDS011;52467;40.114;18.306;2022-07-22T00:33:18;4.32;;;3.45;;
42192;SDS011;52467;40.114;18.306;2022-07-22T00:35:48;4.53;;;3.58;;
42192;SDS011;52467;40.114;18.306;2022-07-22T00:38:15;5.43;;;3.20;;
42192;SDS011;52467;40.114;18.306;2022-07-22T00:40:43;4.90;;;2.80;;
42192;SDS011;52467;40.114;18.306;2022-07-22T00:43:10;9.00;;;3.67;;
42192;SDS011;52467;40.114;18.306;2022-07-22T00:45:37;4.70;;;3.17;;
42192;SDS011;52467;40.114;18.306;2022-07-22T00:48:06;9.02;;;3.60;;
42192;SDS011;52467;40.114;18.306;2022-07-22T00:50:33;4.32;;;2.70;;
42192;SDS011;52467;40.114;18.306;2022-07-22T00:53:00;4.88;;;3.08;;
42192;SDS011;52467;40.114;18.306;2022-07-22T00:55:28;4.40;;;3.28;;
42192;SDS011;52467;40.114;18.306;2022-07-22T00:57:56;5.90;;;3.50;;
42192;SDS011;52467;40.114;18.306;2022-07-22T01:00:23;3.20;;;2.88;;
42192;SDS011;52467;40.114;18.306;2022-07-22T01:02:51;5.03;;;3.30;;
42192;SDS011;52467;40.114;18.306;2022-07-22T01:05:18;5.30;;;3.40;;
42192;SDS011;52467;40.114;18.306;2022-07-22T01:07:46;5.82;;;3.30;;
42192;SDS011;52467;40.114;18.306;2022-07-22T01:10:14;5.83;;;3.43;;
42192;SDS011;52467;40.114;18.306;2022-07-22T01:12:42;5.07;;;3.38;;
42192;SDS011;52467;40.114;18.306;2022-07-22T01:15:09;6.90;;;3.90;;
42192;SDS011;52467;40.114;18.306;2022-07-22T01:17:37;7.78;;;4.20;;
42192;SDS011;52467;40.114;18.306;2022-07-22T01:20:05;7.13;;;3.43;;
42192;SDS011;52467;40.114;18.306;2022-07-22T01:22:34;4.95;;;3.55;;
42192;SDS011;52467;40.114;18.306;2022-07-22T01:25:05;5.28;;;3.00;;
42192;SDS011;52467;40.114;18.306;2022-07-22T01:27:33;5.97;;;3.58;;
42192;SDS011;52467;40.114;18.306;2022-07-22T01:30:01;6.05;;;2.88;;
42192;SDS011;52467;40.114;18.306;2022-07-22T01:32:29;5.00;;;3.40;;
42192;SDS011;52467;40.114;18.306;2022-07-22T01:34:56;4.18;;;2.65;;
42192;SDS011;52467;40.114;18.306;2022-07-22T01:37:23;4.95;;;2.90;;
42192;SDS011;52467;40.114;18.306;2022-07-22T01:39:51;3.83;;;2.85;;
42192;SDS011;52467;40.114;18.306;2022-07-22T01:42:18;4.20;;;2.80;;
42192;SDS011;52467;40.114;18.306;2022-07-22T01:44:46;5.03;;;3.17;;
42192;SDS011;52467;40.114;18.306;2022-07-22T01:47:14;5.40;;;3.08;;
42192;SDS011;52467;40.114;18.306;2022-07-22T01:49:42;4.75;;;2.70;;
42192;SDS011;52467;40.114;18.306;2022-07-22T01:52:10;4.32;;;2.70;;
42192;SDS011;52467;40.114;18.306;2022-07-22T01:54:39;3.88;;;3.00;;
42192;SDS011;52467;40.114;18.306;2022-07-22T01:57:06;4.85;;;3.13;;
42192;SDS011;52467;40.114;18.306;2022-07-22T01:59:41;6.80;;;2.92;;
42192;SDS011;52467;40.114;18.306;2022-07-22T02:02:09;4.35;;;3.08;;
42192;SDS011;52467;40.114;18.306;2022-07-22T02:04:37;3.50;;;2.85;;
42192;SDS011;52467;40.114;18.306;2022-07-22T02:07:04;4.35;;;2.60;;
42192;SDS011;52467;40.114;18.306;2022-07-22T02:09:31;2.97;;;2.58;;
42192;SDS011;52467;40.114;18.306;2022-07-22T02:12:00;3.72;;;2.63;;
42192;SDS011;52467;40.114;18.306;2022-07-22T02:14:32;4.00;;;2.15;;
42192;SDS011;52467;40.114;18.306;2022-07-22T02:16:59;3.17;;;2.67;;
42192;SDS011;52467;40.114;18.306;2022-07-22T02:19:26;5.68;;;2.50;;
42192;SDS011;52467;40.114;18.306;2022-07-22T02:21:54;3.33;;;2.35;;
42192;SDS011;52467;40.114;18.306;2022-07-22T02:24:23;4.05;;;2.58;;
42192;SDS011;52467;40.114;18.306;2022-07-22T02:26:50;3.83;;;2.65;;
42192;SDS011;52467;40.114;18.306;2022-07-22T02:29:17;2.70;;;2.30;;
42192;SDS011;52467;40.114;18.306;2022-07-22T02:31:45;7.15;;;2.45;;
42192;SDS011;52467;40.114;18.306;2022-07-22T02:34:12;3.50;;;2.28;;
42192;SDS011;52467;40.114;18.306;2022-07-22T02:36:40;3.90;;;2.58;;
42192;SDS011;52467;40.114;18.306;2022-07-22T02:39:08;3.55;;;2.88;;
42192;SDS011;52467;40.114;18.306;2022-07-22T02:41:35;2.55;;;2.35;;
42192;SDS011;52467;40.114;18.306;2022-07-22T02:44:04;2.80;;;2.40;;
42192;SDS011;52467;40.114;18.306;2022-07-22T02:46:32;2.95;;;2.05;;
42192;SDS011;52467;40.114;18.306;2022-07-22T02:49:09;4.93;;;2.47;;
42192;SDS011;52467;40.114;18.306;2022-07-22T02:51:37;5.22;;;2.97;;
42192;SDS011;52467;40.114;18.306;2022-07-22T02:54:05;2.53;;;1.98;;
42192;SDS011;52467;40.114;18.306;2022-07-22T02:56:33;5.15;;;2.05;;
42192;SDS011;52467;40.114;18.306;2022-07-22T02:59:00;3.13;;;2.13;;
42192;SDS011;52467;40.114;18.306;2022-07-22T03:01:32;3.35;;;2.20;;
42192;SDS011;52467;40.114;18.306;2022-07-22T03:04:00;3.33;;;2.20;;
42192;SDS011;52467;40.114;18.306;2022-07-22T03:06:30;3.55;;;2.28;;
42192;SDS011;52467;40.114;18.306;2022-07-22T03:09:10;4.35;;;2.15;;
42192;SDS011;52467;40.114;18.306;2022-07-22T03:11:41;4.10;;;2.53;;
42192;SDS011;52467;40.114;18.306;2022-07-22T03:14:10;3.17;;;2.30;;
42192;SDS011;52467;40.114;18.306;2022-07-22T03:16:38;2.55;;;2.08;;
42192;SDS011;52467;40.114;18.306;2022-07-22T03:19:05;5.30;;;2.20;;
42192;SDS011;52467;40.114;18.306;2022-07-22T03:21:34;3.03;;;2.25;;
42192;SDS011;52467;40.114;18.306;2022-07-22T03:24:01;3.55;;;2.15;;
42192;SDS011;52467;40.114;18.306;2022-07-22T03:26:30;3.38;;;2.47;;
42192;SDS011;52467;40.114;18.306;2022-07-22T03:28:58;6.00;;;2.45;;
42192;SDS011;52467;40.114;18.306;2022-07-22T03:31:25;3.13;;;2.20;;
42192;SDS011;52467;40.114;18.306;2022-07-22T03:33:54;5.60;;;2.20;;
42192;SDS011;52467;40.114;18.306;2022-07-22T03:36:21;5.47;;;2.25;;
42192;SDS011;52467;40.114;18.306;2022-07-22T03:38:51;5.10;;;2.40;;
42192;SDS011;52467;40.114;18.306;2022-07-22T03:41:19;2.58;;;2.15;;
42192;SDS011;52467;40.114;18.306;2022-07-22T03:43:46;4.30;;;2.45;;
42192;SDS011;52467;40.114;18.306;2022-07-22T03:46:14;5.50;;;2.50;;
42192;SDS011;52467;40.114;18.306;2022-07-22T03:48:42;2.95;;;2.33;;
42192;SDS011;52467;40.114;18.306;2022-07-22T03:51:12;2.90;;;2.05;;
42192;SDS011;52467;40.114;18.306;2022-07-22T03:53:39;3.70;;;2.47;;
42192;SDS011;52467;40.114;18.306;2022-07-22T03:56:06;2.50;;;2.10;;
42192;SDS011;52467;40.114;18.306;2022-07-22T03:58:34;5.50;;;2.28;;
42192;SDS011;52467;40.114;18.306;2022-07-22T04:01:01;3.42;;;2.35;;
42192;SDS011;52467;40.114;18.306;2022-07-22T04:03:29;2.17;;;1.80;;
42192;SDS011;52467;40.114;18.306;2022-07-22T04:06:06;3.00;;;2.25;;
42192;SDS011;52467;40.114;18.306;2022-07-22T04:08:42;3.17;;;2.03;;
42192;SDS011;52467;40.114;18.306;2022-07-22T04:11:10;2.83;;;2.00;;
42192;SDS011;52467;40.114;18.306;2022-07-22T04:13:39;3.47;;;2.30;;
42192;SDS011;52467;40.114;18.306;2022-07-22T04:16:07;2.58;;;2.00;;
42192;SDS011;52467;40.114;18.306;2022-07-22T04:18:34;4.32;;;2.10;;
42192;SDS011;52467;40.114;18.306;2022-07-22T04:21:02;4.80;;;2.45;;
42192;SDS011;52467;40.114;18.306;2022-07-22T04:23:29;5.25;;;1.90;;
42192;SDS011;52467;40.114;18.306;2022-07-22T04:26:19;3.97;;;2.28;;
42192;SDS011;52467;40.114;18.306;2022-07-22T04:28:47;3.45;;;2.30;;
42192;SDS011;52467;40.114;18.306;2022-07-22T04:31:16;5.45;;;2.50;;
42192;SDS011;52467;40.114;18.306;2022-07-22T04:33:47;2.55;;;1.98;;
42192;SDS011;52467;40.114;18.306;2022-07-22T04:36:14;4.70;;;2.40;;
42192;SDS011;52467;40.114;18.306;2022-07-22T04:38:42;8.82;;;2.83;;
42192;SDS011;52467;40.114;18.306;2022-07-22T04:41:10;4.13;;;2.22;;
42192;SDS011;52467;40.114;18.306;2022-07-22T04:43:37;2.60;;;2.13;;
42192;SDS011;52467;40.114;18.306;2022-07-22T04:46:06;4.60;;;1.90;;
42192;SDS011;52467;40.114;18.306;2022-07-22T04:48:37;4.60;;;2.00;;
42192;SDS011;52467;40.114;18.306;2022-07-22T04:51:04;4.78;;;2.30;;
42192;SDS011;52467;40.114;18.306;2022-07-22T04:53:33;4.18;;;2.17;;
42192;SDS011;52467;40.114;18.306;2022-07-22T04:56:01;4.38;;;2.00;;
42192;SDS011;52467;40.114;18.306;2022-07-22T04:58:28;5.22;;;2.28;;
42192;SDS011;52467;40.114;18.306;2022-07-22T05:00:57;5.50;;;2.30;;
42192;SDS011;52467;40.114;18.306;2022-07-22T05:03:25;4.15;;;2.60;;
42192;SDS011;52467;40.114;18.306;2022-07-22T05:05:53;4.10;;;2.00;;
42192;SDS011;52467;40.114;18.306;2022-07-22T05:08:29;2.75;;;2.03;;
42192;SDS011;52467;40.114;18.306;2022-07-22T05:10:57;4.55;;;2.60;;
42192;SDS011;52467;40.114;18.306;2022-07-22T05:13:25;12.07;;;2.50;;
42192;SDS011;52467;40.114;18.306;2022-07-22T05:15:52;2.60;;;1.95;;
42192;SDS011;52467;40.114;18.306;2022-07-22T05:18:19;3.15;;;2.25;;
42192;SDS011;52467;40.114;18.306;2022-07-22T05:20:47;4.90;;;2.13;;
42192;SDS011;52467;40.114;18.306;2022-07-22T05:23:14;6.47;;;2.72;;
42192;SDS011;52467;40.114;18.306;2022-07-22T05:25:42;4.43;;;2.47;;
42192;SDS011;52467;40.114;18.306;2022-07-22T05:28:09;3.42;;;2.00;;
42192;SDS011;52467;40.114;18.306;2022-07-22T05:30:41;3.78;;;2.63;;
42192;SDS011;52467;40.114;18.306;2022-07-22T05:33:11;2.50;;;1.90;;
42192;SDS011;52467;40.114;18.306;2022-07-22T05:35:47;4.70;;;2.20;;
42192;SDS011;52467;40.114;18.306;2022-07-22T05:38:15;4.30;;;2.60;;
42192;SDS011;52467;40.114;18.306;2022-07-22T05:40:43;3.45;;;2.55;;
42192;SDS011;52467;40.114;18.306;2022-07-22T05:43:10;5.03;;;2.50;;
42192;SDS011;52467;40.114;18.306;2022-07-22T05:45:38;7.47;;;2.63;;
42192;SDS011;52467;40.114;18.306;2022-07-22T05:48:05;5.32;;;2.10;;
42192;SDS011;52467;40.114;18.306;2022-07-22T05:50:33;10.13;;;2.80;;
42192;SDS011;52467;40.114;18.306;2022-07-22T05:53:02;5.22;;;2.15;;
42192;SDS011;52467;40.114;18.306;2022-07-22T05:55:29;6.68;;;2.38;;
42192;SDS011;52467;40.114;18.306;2022-07-22T05:57:56;4.57;;;2.22;;
42192;SDS011;52467;40.114;18.306;2022-07-22T06:00:24;4.22;;;2.15;;
42192;SDS011;52467;40.114;18.306;2022-07-22T06:02:52;8.23;;;2.30;;
42192;SDS011;52467;40.114;18.306;2022-07-22T06:05:20;2.90;;;2.00;;
42192;SDS011;52467;40.114;18.306;2022-07-22T06:08:07;4.78;;;2.30;;
42192;SDS011;52467;40.114;18.306;2022-07-22T06:10:41;6.97;;;2.60;;
42192;SDS011;52467;40.114;18.306;2022-07-22T06:13:09;3.70;;;2.10;;
42192;SDS011;52467;40.114;18.306;2022-07-22T06:15:38;6.87;;;2.30;;
42192;SDS011;52467;40.114;18.306;2022-07-22T06:18:06;6.63;;;2.15;;
42192;SDS011;52467;40.114;18.306;2022-07-22T06:20:33;2.72;;;1.85;;
42192;SDS011;52467;40.114;18.306;2022-07-22T06:23:00;3.97;;;1.70;;
42192;SDS011;52467;40.114;18.306;2022-07-22T06:25:29;2.92;;;1.70;;
42192;SDS011;52467;40.114;18.306;2022-07-22T06:28:09;3.63;;;1.73;;
42192;SDS011;52467;40.114;18.306;2022-07-22T06:30:38;1.98;;;1.67;;
42192;SDS011;52467;40.114;18.306;2022-07-22T06:33:06;4.78;;;1.77;;
42192;SDS011;52467;40.114;18.306;2022-07-22T06:35:34;2.00;;;1.70;;
42192;SDS011;52467;40.114;18.306;2022-07-22T06:38:01;3.17;;;1.63;;
42192;SDS011;52467;40.114;18.306;2022-07-22T06:40:40;3.95;;;1.70;;
42192;SDS011;52467;40.114;18.306;2022-07-22T06:43:33;5.57;;;1.90;;
42192;SDS011;52467;40.114;18.306;2022-07-22T06:46:19;2.42;;;1.60;;
42192;SDS011;52467;40.114;18.306;2022-07-22T06:48:50;2.40;;;1.50;;
42192;SDS011;52467;40.114;18.306;2022-07-22T06:51:17;2.72;;;1.95;;
42192;SDS011;52467;40.114;18.306;2022-07-22T06:53:45;2.35;;;1.63;;
42192;SDS011;52467;40.114;18.306;2022-07-22T06:56:13;3.58;;;1.80;;
42192;SDS011;52467;40.114;18.306;2022-07-22T06:58:41;3.30;;;1.48;;
42192;SDS011;52467;40.114;18.306;2022-07-22T07:01:10;3.60;;;1.33;;
42192;SDS011;52467;40.114;18.306;2022-07-22T07:04:07;3.17;;;1.38;;
42192;SDS011;52467;40.114;18.306;2022-07-22T07:06:35;1.95;;;1.42;;
42192;SDS011;52467;40.114;18.306;2022-07-22T07:09:35;3.40;;;1.60;;
42192;SDS011;52467;40.114;18.306;2022-07-22T07:12:25;4.07;;;1.20;;
42192;SDS011;52467;40.114;18.306;2022-07-22T07:15:12;2.95;;;1.13;;
42192;SDS011;52467;40.114;18.306;2022-07-22T07:18:02;2.08;;;1.55;;
42192;SDS011;52467;40.114;18.306;2022-07-22T07:20:30;2.78;;;1.50;;
42192;SDS011;52467;40.114;18.306;2022-07-22T07:22:59;2.50;;;1.47;;
42192;SDS011;52467;40.114;18.306;2022-07-22T07:25:30;1.33;;;1.20;;
42192;SDS011;52467;40.114;18.306;2022-07-22T07:27:58;4.18;;;1.73;;
42192;SDS011;52467;40.114;18.306;2022-07-22T07:30:44;2.00;;;1.15;;
42192;SDS011;52467;40.114;18.306;2022-07-22T07:33:12;3.80;;;1.10;;
42192;SDS011;52467;40.114;18.306;2022-07-22T07:35:40;1.45;;;1.30;;
42192;SDS011;52467;40.114;18.306;2022-07-22T07:38:08;2.25;;;1.10;;
42192;SDS011;52467;40.114;18.306;2022-07-22T07:40:37;1.77;;;1.10;;
42192;SDS011;52467;40.114;18.306;2022-07-22T07:43:05;4.40;;;1.50;;
42192;SDS011;52467;40.114;18.306;2022-07-22T07:45:32;4.13;;;1.37;;
42192;SDS011;52467;40.114;18.306;2022-07-22T07:48:01;1.90;;;1.38;;
42192;SDS011;52467;40.114;18.306;2022-07-22T07:50:28;1.10;;;0.90;;
42192;SDS011;52467;40.114;18.306;2022-07-22T07:52:56;2.38;;;0.90;;
42192;SDS011;52467;40.114;18.306;2022-07-22T07:55:25;3.35;;;1.45;;
42192;SDS011;52467;40.114;18.306;2022-07-22T07:57:53;4.97;;;1.20;;
42192;SDS011;52467;40.114;18.306;2022-07-22T08:00:23;2.70;;;1.38;;
42192;SDS011;52467;40.114;18.306;2022-07-22T08:02:55;2.80;;;1.10;;
42192;SDS011;52467;40.114;18.306;2022-07-22T08:05:24;2.15;;;0.85;;
42192;SDS011;52467;40.114;18.306;2022-07-22T08:07:52;2.57;;;1.27;;
42192;SDS011;52467;40.114;18.306;2022-07-22T08:10:20;1.58;;;1.25;;
42192;SDS011;52467;40.114;18.306;2022-07-22T08:13:27;3.03;;;1.35;;
42192;SDS011;52467;40.114;18.306;2022-07-22T08:16:27;1.73;;;1.37;;
42192;SDS011;52467;40.114;18.306;2022-07-22T08:18:55;2.45;;;1.15;;
42192;SDS011;52467;40.114;18.306;2022-07-22T08:21:22;3.28;;;1.77;;
42192;SDS011;52467;40.114;18.306;2022-07-22T08:23:57;1.63;;;1.20;;
42192;SDS011;52467;40.114;18.306;2022-07-22T08:26:24;3.35;;;1.05;;
42192;SDS011;52467;40.114;18.306;2022-07-22T08:28:56;2.55;;;1.15;;
42192;SDS011;52467;40.114;18.306;2022-07-22T08:31:27;2.65;;;1.00;;
42192;SDS011;52467;40.114;18.306;2022-07-22T08:33:56;4.70;;;1.40;;
42192;SDS011;52467;40.114;18.306;2022-07-22T08:36:26;2.77;;;1.70;;
42192;SDS011;52467;40.114;18.306;2022-07-22T08:38:54;1.90;;;1.25;;
42192;SDS011;52467;40.114;18.306;2022-07-22T08:41:22;1.90;;;1.08;;
42192;SDS011;52467;40.114;18.306;2022-07-22T08:43:51;2.30;;;1.30;;
42192;SDS011;52467;40.114;18.306;2022-07-22T08:46:19;1.95;;;1.05;;
42192;SDS011;52467;40.114;18.306;2022-07-22T08:49:07;1.98;;;1.10;;
42192;SDS011;52467;40.114;18.306;2022-07-22T08:51:43;5.38;;;1.20;;
42192;SDS011;52467;40.114;18.306;2022-07-22T08:54:21;1.10;;;0.98;;
42192;SDS011;52467;40.114;18.306;2022-07-22T08:56:49;3.53;;;1.00;;
42192;SDS011;52467;40.114;18.306;2022-07-22T08:59:18;1.50;;;1.20;;
42192;SDS011;52467;40.114;18.306;2022-07-22T09:02:02;2.47;;;1.42;;
42192;SDS011;52467;40.114;18.306;2022-07-22T09:04:49;1.65;;;1.25;;
42192;SDS011;52467;40.114;18.306;2022-07-22T09:07:38;3.58;;;1.20;;
42192;SDS011;52467;40.114;18.306;2022-07-22T09:10:15;1.30;;;1.10;;
42192;SDS011;52467;40.114;18.306;2022-07-22T09:13:06;1.33;;;0.95;;
42192;SDS011;52467;40.114;18.306;2022-07-22T09:15:51;1.50;;;1.10;;
42192;SDS011;52467;40.114;18.306;2022-07-22T09:18:53;1.20;;;0.90;;
42192;SDS011;52467;40.114;18.306;2022-07-22T09:21:56;1.13;;;1.02;;
42192;SDS011;52467;40.114;18.306;2022-07-22T09:24:31;1.70;;;1.10;;
42192;SDS011;52467;40.114;18.306;2022-07-22T09:27:23;2.53;;;1.10;;
42192;SDS011;52467;40.114;18.306;2022-07-22T09:30:31;1.42;;;1.00;;
42192;SDS011;52467;40.114;18.306;2022-07-22T09:33:07;2.27;;;1.03;;
42192;SDS011;52467;40.114;18.306;2022-07-22T09:35:50;1.55;;;0.90;;
42192;SDS011;52467;40.114;18.306;2022-07-22T09:38:26;1.80;;;1.05;;
42192;SDS011;52467;40.114;18.306;2022-07-22T09:40:57;1.60;;;1.00;;
42192;SDS011;52467;40.114;18.306;2022-07-22T09:43:25;1.25;;;1.08;;
42192;SDS011;52467;40.114;18.306;2022-07-22T09:45:59;1.38;;;1.13;;
42192;SDS011;52467;40.114;18.306;2022-07-22T09:48:49;2.65;;;1.17;;
42192;SDS011;52467;40.114;18.306;2022-07-22T09:51:40;3.83;;;1.20;;
42192;SDS011;52467;40.114;18.306;2022-07-22T09:54:37;2.50;;;1.60;;
42192;SDS011;52467;40.114;18.306;2022-07-22T09:57:05;2.90;;;1.33;;
42192;SDS011;52467;40.114;18.306;2022-07-22T09:59:32;2.08;;;1.10;;
42192;SDS011;52467;40.114;18.306;2022-07-22T10:02:21;3.90;;;1.27;;
42192;SDS011;52467;40.114;18.306;2022-07-22T10:04:51;1.70;;;1.40;;
42192;SDS011;52467;40.114;18.306;2022-07-22T10:07:20;5.00;;;0.90;;
42192;SDS011;52467;40.114;18.306;2022-07-22T10:09:49;2.33;;;1.00;;
42192;SDS011;52467;40.114;18.306;2022-07-22T10:12:18;2.87;;;1.30;;
42192;SDS011;52467;40.114;18.306;2022-07-22T10:14:46;1.50;;;1.10;;
42192;SDS011;52467;40.114;18.306;2022-07-22T10:17:14;1.45;;;1.13;;
42192;SDS011;52467;40.114;18.306;2022-07-22T10:19:44;4.07;;;1.65;;
42192;SDS011;52467;40.114;18.306;2022-07-22T10:25:10;1.70;;;0.90;;
42192;SDS011;52467;40.114;18.306;2022-07-22T10:30:28;4.00;;;1.80;;
42192;SDS011;52467;40.114;18.306;2022-07-22T10:35:36;3.63;;;0.95;;
42192;SDS011;52467;40.114;18.306;2022-07-22T10:38:26;5.10;;;1.17;;
42192;SDS011;52467;40.114;18.306;2022-07-22T10:41:04;3.40;;;1.23;;
42192;SDS011;52467;40.114;18.306;2022-07-22T10:46:09;3.58;;;1.10;;
42192;SDS011;52467;40.114;18.306;2022-07-22T10:51:05;9.33;;;2.27;;
42192;SDS011;52467;40.114;18.306;2022-07-22T10:53:52;2.10;;;1.27;;
42192;SDS011;52467;40.114;18.306;2022-07-22T11:01:48;1.92;;;1.27;;
42192;SDS011;52467;40.114;18.306;2022-07-22T11:04:18;1.73;;;1.20;;
42192;SDS011;52467;40.114;18.306;2022-07-22T11:06:47;1.98;;;1.02;;
42192;SDS011;52467;40.114;18.306;2022-07-22T11:09:19;1.73;;;1.30;;
42192;SDS011;52467;40.114;18.306;2022-07-22T11:11:51;2.03;;;1.13;;
42192;SDS011;52467;40.114;18.306;2022-07-22T11:14:22;1.85;;;1.10;;
42192;SDS011;52467;40.114;18.306;2022-07-22T11:16:54;2.40;;;1.10;;
42192;SDS011;52467;40.114;18.306;2022-07-22T11:19:25;1.48;;;1.20;;
42192;SDS011;52467;40.114;18.306;2022-07-22T11:21:59;1.60;;;1.25;;
42192;SDS011;52467;40.114;18.306;2022-07-22T11:24:31;1.30;;;1.20;;
42192;SDS011;52467;40.114;18.306;2022-07-22T11:26:59;3.10;;;1.50;;
42192;SDS011;52467;40.114;18.306;2022-07-22T11:29:34;1.80;;;1.10;;
42192;SDS011;52467;40.114;18.306;2022-07-22T11:32:05;1.27;;;1.03;;
42192;SDS011;52467;40.114;18.306;2022-07-22T11:34:39;1.70;;;1.00;;
42192;SDS011;52467;40.114;18.306;2022-07-22T11:37:15;1.27;;;1.15;;
42192;SDS011;52467;40.114;18.306;2022-07-22T11:39:46;3.30;;;1.50;;
42192;SDS011;52467;40.114;18.306;2022-07-22T11:42:14;1.27;;;1.15;;
42192;SDS011;52467;40.114;18.306;2022-07-22T11:44:41;2.28;;;1.20;;
42192;SDS011;52467;40.114;18.306;2022-07-22T11:47:09;3.35;;;1.05;;
42192;SDS011;52467;40.114;18.306;2022-07-22T11:49:37;1.65;;;1.10;;
42192;SDS011;52467;40.114;18.306;2022-07-22T11:52:07;2.20;;;1.15;;
42192;SDS011;52467;40.114;18.306;2022-07-22T11:54:39;5.03;;;1.30;;
42192;SDS011;52467;40.114;18.306;2022-07-22T11:57:07;1.48;;;0.90;;
42192;SDS011;52467;40.114;18.306;2022-07-22T11:59:35;1.80;;;1.00;;
42192;SDS011;52467;40.114;18.306;2022-07-22T12:02:03;1.27;;;1.10;;
42192;SDS011;52467;40.114;18.306;2022-07-22T12:04:31;2.50;;;1.00;;
42192;SDS011;52467;40.114;18.306;2022-07-22T12:07:00;2.20;;;1.05;;
42192;SDS011;52467;40.114;18.306;2022-07-22T12:09:30;1.90;;;1.23;;
42192;SDS011;52467;40.114;18.306;2022-07-22T12:12:00;1.70;;;1.08;;
42192;SDS011;52467;40.114;18.306;2022-07-22T12:14:29;1.80;;;1.10;;
42192;SDS011;52467;40.114;18.306;2022-07-22T12:17:00;1.70;;;1.00;;
42192;SDS011;52467;40.114;18.306;2022-07-22T12:19:31;1.47;;;1.37;;
42192;SDS011;52467;40.114;18.306;2022-07-22T12:22:02;2.40;;;1.00;;
42192;SDS011;52467;40.114;18.306;2022-07-22T12:24:37;4.40;;;1.30;;
42192;SDS011;52467;40.114;18.306;2022-07-22T12:27:09;2.47;;;1.20;;
42192;SDS011;52467;40.114;18.306;2022-07-22T12:32:07;5.07;;;1.08;;
42192;SDS011;52467;40.114;18.306;2022-07-22T12:39:55;2.13;;;1.10;;
42192;SDS011;52467;40.114;18.306;2022-07-22T12:42:34;2.75;;;1.20;;
42192;SDS011;52467;40.114;18.306;2022-07-22T12:45:09;3.30;;;1.23;;
42192;SDS011;52467;40.114;18.306;2022-07-22T12:50:21;1.83;;;1.50;;
42192;SDS011;52467;40.114;18.306;2022-07-22T12:52:50;2.33;;;1.50;;
42192;SDS011;52467;40.114;18.306;2022-07-22T12:55:43;1.90;;;1.50;;
42192;SDS011;52467;40.114;18.306;2022-07-22T12:58:19;1.50;;;1.40;;
42192;SDS011;52467;40.114;18.306;2022-07-22T13:00:48;4.63;;;1.63;;
42192;SDS011;52467;40.114;18.306;2022-07-22T13:03:20;1.65;;;1.40;;
42192;SDS011;52467;40.114;18.306;2022-07-22T13:05:50;2.35;;;1.52;;
42192;SDS011;52467;40.114;18.306;2022-07-22T13:08:19;2.67;;;1.40;;
42192;SDS011;52467;40.114;18.306;2022-07-22T13:10:51;3.25;;;1.58;;
42192;SDS011;52467;40.114;18.306;2022-07-22T13:13:19;1.73;;;1.42;;
42192;SDS011;52467;40.114;18.306;2022-07-22T13:15:47;1.60;;;1.50;;
42192;SDS011;52467;40.114;18.306;2022-07-22T13:18:15;1.95;;;1.70;;
42192;SDS011;52467;40.114;18.306;2022-07-22T13:20:43;2.40;;;1.83;;
42192;SDS011;52467;40.114;18.306;2022-07-22T13:23:10;2.03;;;1.60;;
42192;SDS011;52467;40.114;18.306;2022-07-22T13:25:38;3.70;;;1.40;;
42192;SDS011;52467;40.114;18.306;2022-07-22T13:28:05;3.58;;;1.65;;
42192;SDS011;52467;40.114;18.306;2022-07-22T13:30:32;3.93;;;1.60;;
42192;SDS011;52467;40.114;18.306;2022-07-22T13:33:00;1.95;;;1.75;;
42192;SDS011;52467;40.114;18.306;2022-07-22T13:35:27;1.98;;;1.60;;
42192;SDS011;52467;40.114;18.306;2022-07-22T13:37:56;1.83;;;1.67;;
42192;SDS011;52467;40.114;18.306;2022-07-22T13:40:24;1.70;;;1.60;;
42192;SDS011;52467;40.114;18.306;2022-07-22T13:42:52;2.90;;;1.60;;
42192;SDS011;52467;40.114;18.306;2022-07-22T13:45:19;1.80;;;1.67;;
42192;SDS011;52467;40.114;18.306;2022-07-22T13:47:46;2.85;;;1.67;;
42192;SDS011;52467;40.114;18.306;2022-07-22T13:50:14;1.98;;;1.50;;
42192;SDS011;52467;40.114;18.306;2022-07-22T13:52:41;3.90;;;1.50;;
42192;SDS011;52467;40.114;18.306;2022-07-22T13:55:13;2.50;;;1.77;;
42192;SDS011;52467;40.114;18.306;2022-07-22T13:57:40;2.88;;;1.75;;
42192;SDS011;52467;40.114;18.306;2022-07-22T14:00:09;1.42;;;1.30;;
42192;SDS011;52467;40.114;18.306;2022-07-22T14:02:39;2.23;;;1.77;;
42192;SDS011;52467;40.114;18.306;2022-07-22T14:05:07;2.15;;;1.48;;
42192;SDS011;52467;40.114;18.306;2022-07-22T14:07:34;2.72;;;1.60;;
42192;SDS011;52467;40.114;18.306;2022-07-22T14:10:02;3.03;;;1.60;;
42192;SDS011;52467;40.114;18.306;2022-07-22T14:12:30;4.65;;;1.60;;
42192;SDS011;52467;40.114;18.306;2022-07-22T14:14:57;3.95;;;2.05;;
42192;SDS011;52467;40.114;18.306;2022-07-22T14:17:25;3.30;;;1.50;;
42192;SDS011;52467;40.114;18.306;2022-07-22T14:19:52;1.67;;;1.50;;
42192;SDS011;52467;40.114;18.306;2022-07-22T14:22:24;2.03;;;1.70;;
42192;SDS011;52467;40.114;18.306;2022-07-22T14:24:51;1.60;;;1.50;;
42192;SDS011;52467;40.114;18.306;2022-07-22T14:27:19;3.42;;;1.70;;
42192;SDS011;52467;40.114;18.306;2022-07-22T14:29:46;2.63;;;1.60;;
42192;SDS011;52467;40.114;18.306;2022-07-22T14:32:13;1.70;;;1.60;;
42192;SDS011;52467;40.114;18.306;2022-07-22T14:34:43;1.83;;;1.63;;
42192;SDS011;52467;40.114;18.306;2022-07-22T14:37:10;1.77;;;1.67;;
42192;SDS011;52467;40.114;18.306;2022-07-22T14:39:37;2.72;;;1.60;;
42192;SDS011;52467;40.114;18.306;2022-07-22T14:42:05;1.70;;;1.60;;
42192;SDS011;52467;40.114;18.306;2022-07-22T14:44:32;2.73;;;1.70;;
42192;SDS011;52467;40.114;18.306;2022-07-22T14:46:59;1.80;;;1.70;;
42192;SDS011;52467;40.114;18.306;2022-07-22T14:49:28;4.00;;;1.70;;
42192;SDS011;52467;40.114;18.306;2022-07-22T14:52:05;2.00;;;1.70;;
42192;SDS011;52467;40.114;18.306;2022-07-22T14:54:33;2.15;;;1.83;;
42192;SDS011;52467;40.114;18.306;2022-07-22T14:57:00;3.90;;;1.60;;
42192;SDS011;52467;40.114;18.306;2022-07-22T14:59:28;1.80;;;1.70;;
42192;SDS011;52467;40.114;18.306;2022-07-22T15:01:55;1.80;;;1.50;;
42192;SDS011;52467;40.114;18.306;2022-07-22T15:04:23;1.65;;;1.55;;
42192;SDS011;52467;40.114;18.306;2022-07-22T15:06:50;3.40;;;1.70;;
42192;SDS011;52467;40.114;18.306;2022-07-22T15:09:17;3.17;;;1.77;;
42192;SDS011;52467;40.114;18.306;2022-07-22T15:11:45;1.40;;;1.30;;
42192;SDS011;52467;40.114;18.306;2022-07-22T15:14:12;2.37;;;1.80;;
42192;SDS011;52467;40.114;18.306;2022-07-22T15:16:40;2.00;;;1.58;;
42192;SDS011;52467;40.114;18.306;2022-07-22T15:19:07;2.63;;;1.50;;
42192;SDS011;52467;40.114;18.306;2022-07-22T15:21:34;2.20;;;1.63;;
42192;SDS011;52467;40.114;18.306;2022-07-22T15:24:01;2.80;;;1.40;;